createdAt,value
2019-03-23T00:02:26.596Z,15.12
2019-03-23T00:05:00.348Z,14.36
2019-03-23T00:07:34.014Z,13.81
2019-03-23T00:10:07.972Z,13.37
2019-03-23T00:12:41.895Z,12.98
2019-03-23T00:15:16.428Z,12.66
2019-03-23T00:17:50.163Z,14.95
2019-03-23T00:20:23.901Z,18.08
2019-03-23T00:22:57.594Z,17.42
2019-03-23T00:25:31.224Z,15.95
2019-03-23T00:28:04.960Z,14.91
2019-03-23T00:30:38.591Z,14.18
2019-03-23T00:33:12.321Z,13.63
2019-03-23T00:35:45.962Z,13.15
2019-03-23T00:38:19.617Z,12.74
2019-03-23T00:40:54.300Z,14.83
2019-03-23T00:43:27.922Z,18.24
2019-03-23T00:46:01.778Z,17.45
2019-03-23T00:48:35.417Z,15.93
2019-03-23T00:51:09.105Z,14.86
2019-03-23T00:53:42.786Z,14.12
2019-03-23T00:56:16.617Z,13.53
2019-03-23T00:58:50.454Z,13.05
2019-03-23T01:01:24.081Z,12.63
2019-03-23T01:03:57.756Z,12.25
2019-03-23T01:06:31.412Z,14.33
2019-03-23T01:09:07.528Z,17.64
2019-03-23T01:11:41.270Z,16.76
2019-03-23T01:14:14.870Z,15.29
2019-03-23T01:16:48.373Z,14.25
2019-03-23T01:19:21.983Z,13.51
2019-03-23T01:21:55.604Z,12.97
2019-03-23T01:24:30.229Z,12.50
2019-03-23T01:27:03.912Z,12.06
2019-03-23T01:29:37.446Z,14.12
2019-03-23T01:32:11.085Z,17.46
2019-03-23T01:34:44.668Z,16.77
2019-03-23T01:37:18.384Z,15.17
2019-03-23T01:39:51.983Z,13.91
2019-03-23T01:42:25.732Z,13.11
2019-03-23T01:44:59.334Z,12.50
2019-03-23T01:47:33.031Z,15.14
2019-03-23T01:50:07.492Z,16.27
2019-03-23T01:52:41.000Z,14.81
2019-03-23T01:55:14.645Z,13.63
2019-03-23T01:57:48.154Z,12.81
2019-03-23T02:00:21.762Z,13.56
2019-03-23T02:02:55.375Z,16.99
2019-03-23T02:05:29.040Z,16.93
2019-03-23T02:08:02.701Z,15.36
2019-03-23T02:10:36.262Z,14.22
2019-03-23T02:13:09.986Z,13.43
2019-03-23T02:15:43.674Z,12.78
2019-03-23T02:18:17.252Z,12.29
2019-03-23T02:20:50.956Z,11.88
2019-03-23T02:23:24.698Z,11.50
2019-03-23T02:25:58.295Z,13.42
2019-03-23T02:28:32.005Z,16.60
2019-03-23T02:31:07.315Z,16.00
2019-03-23T02:33:41.021Z,14.52
2019-03-23T02:36:14.736Z,13.47
2019-03-23T02:38:48.370Z,12.74
2019-03-23T02:41:21.911Z,12.16
2019-03-23T02:43:55.570Z,11.70
2019-03-23T02:46:29.361Z,11.30
2019-03-23T02:49:03.137Z,13.16
2019-03-23T02:51:39.606Z,16.62
2019-03-23T02:54:12.171Z,16.38
2019-03-23T02:56:46.087Z,14.79
2019-03-23T02:59:19.678Z,13.57
2019-03-23T03:01:53.324Z,12.80
2019-03-23T03:04:26.900Z,12.21
2019-03-23T03:07:00.590Z,11.88
2019-03-23T03:09:34.095Z,14.95
2019-03-23T03:12:07.840Z,15.88
2019-03-23T03:14:41.530Z,14.48
2019-03-23T03:17:15.112Z,13.35
2019-03-23T03:19:48.775Z,12.51
2019-03-23T03:22:22.451Z,11.94
2019-03-23T03:24:56.170Z,11.44
2019-03-23T03:27:29.783Z,13.15
2019-03-23T03:30:03.424Z,16.79
2019-03-23T03:32:38.011Z,16.25
2019-03-23T03:35:11.913Z,14.64
2019-03-23T03:37:55.694Z,13.47
2019-03-23T03:40:20.759Z,12.66
2019-03-23T03:42:54.384Z,12.06
2019-03-23T03:45:28.930Z,11.54
2019-03-23T03:48:02.514Z,11.12
2019-03-23T03:50:36.161Z,12.02
2019-03-23T03:53:09.810Z,15.84
2019-03-23T03:55:43.419Z,16.01
2019-03-23T03:58:16.961Z,14.42
2019-03-23T04:00:50.618Z,13.22
2019-03-23T04:03:24.239Z,12.41
2019-03-23T04:05:57.930Z,11.80
2019-03-23T04:08:31.596Z,11.29
2019-03-23T04:11:05.796Z,10.87
2019-03-23T04:13:39.463Z,13.05
2019-03-23T04:16:13.197Z,16.21
2019-03-23T04:18:46.849Z,15.25
2019-03-23T04:21:20.491Z,13.76
2019-03-23T04:23:54.155Z,12.71
2019-03-23T04:26:27.804Z,11.98
2019-03-23T04:29:01.520Z,11.43
2019-03-23T04:31:35.273Z,10.92
2019-03-23T04:34:08.932Z,10.50
2019-03-23T04:36:42.693Z,12.82
2019-03-23T04:39:16.348Z,16.32
2019-03-23T04:41:49.963Z,15.52
2019-03-23T04:44:23.600Z,13.91
2019-03-23T04:46:57.232Z,12.77
2019-03-23T04:49:30.902Z,12.01
2019-03-23T04:52:04.578Z,11.40
2019-03-23T04:54:39.014Z,10.88
2019-03-23T04:57:12.874Z,11.10
2019-03-23T04:59:46.507Z,14.77
2019-03-23T05:02:20.117Z,15.19
2019-03-23T05:04:53.965Z,13.66
2019-03-23T05:07:27.595Z,12.51
2019-03-23T05:10:01.172Z,11.75
2019-03-23T05:12:34.896Z,11.12
2019-03-23T05:15:10.104Z,10.61
2019-03-23T05:17:43.875Z,10.22
2019-03-23T05:20:29.425Z,12.47
2019-03-23T05:23:03.117Z,16.00
2019-03-23T05:25:36.869Z,15.17
2019-03-23T05:28:10.733Z,13.60
2019-03-23T05:30:44.430Z,12.53
2019-03-23T05:33:18.185Z,11.77
2019-03-23T05:35:52.021Z,11.19
2019-03-23T05:38:25.608Z,10.72
2019-03-23T05:40:59.348Z,10.31
2019-03-23T05:43:33.262Z,12.74
2019-03-23T05:46:06.910Z,16.14
2019-03-23T05:48:40.606Z,15.46
2019-03-23T05:51:15.954Z,13.88
2019-03-23T05:53:50.219Z,12.80
2019-03-23T05:56:24.024Z,11.98
2019-03-23T05:58:57.703Z,11.36
2019-03-23T06:01:31.537Z,10.87
2019-03-23T06:04:06.068Z,13.05
2019-03-23T06:06:39.789Z,16.28
2019-03-23T06:09:14.845Z,15.23
2019-03-23T06:11:48.953Z,13.81
2019-03-23T06:14:23.768Z,12.82
2019-03-23T06:16:57.490Z,12.19
2019-03-23T06:19:31.406Z,11.68
2019-03-23T06:22:06.663Z,14.12
2019-03-23T06:24:40.562Z,16.74
2019-03-23T06:27:14.280Z,15.59
2019-03-23T06:29:50.006Z,14.22
2019-03-23T06:32:24.507Z,13.28
2019-03-23T06:34:58.234Z,12.66
2019-03-23T06:37:32.884Z,13.07
2019-03-23T06:40:09.591Z,16.64
2019-03-23T06:42:43.330Z,16.99
2019-03-23T06:45:18.585Z,15.52
2019-03-23T06:47:52.234Z,14.42
2019-03-23T06:50:25.934Z,13.70
2019-03-23T06:52:59.596Z,13.14
2019-03-23T06:55:33.332Z,13.02
2019-03-23T06:58:07.064Z,16.25
2019-03-23T07:00:40.716Z,17.07
2019-03-23T07:03:14.295Z,15.80
2019-03-23T07:05:47.830Z,14.79
2019-03-23T07:08:31.498Z,14.13
2019-03-23T07:10:56.696Z,13.60
2019-03-23T07:13:30.353Z,13.26
2019-03-23T07:16:05.034Z,12.92
2019-03-23T07:18:38.658Z,15.35
2019-03-23T07:21:12.627Z,18.36
2019-03-23T07:23:46.300Z,17.90
2019-03-23T07:26:19.792Z,16.53
2019-03-23T07:28:53.442Z,15.57
2019-03-23T07:31:27.101Z,14.92
2019-03-23T07:34:00.660Z,14.46
2019-03-23T07:36:34.416Z,14.12
2019-03-23T07:39:09.536Z,13.83
2019-03-23T07:41:43.076Z,13.58
2019-03-23T07:44:16.663Z,16.07
2019-03-23T07:46:50.394Z,19.44
2019-03-23T07:49:25.819Z,19.09
2019-03-23T07:51:59.425Z,17.46
2019-03-23T07:54:33.260Z,16.49
2019-03-23T07:57:06.956Z,15.81
2019-03-23T07:59:40.906Z,15.41
2019-03-23T08:02:14.429Z,15.09
2019-03-23T08:04:48.021Z,14.81
2019-03-23T08:07:21.763Z,17.31
2019-03-23T08:09:56.451Z,20.27
2019-03-23T08:12:29.973Z,19.24
2019-03-23T08:15:03.570Z,18.00
2019-03-23T08:17:37.207Z,17.15
2019-03-23T08:20:10.883Z,16.60
2019-03-23T08:22:44.485Z,16.21
2019-03-23T08:25:18.140Z,15.87
2019-03-23T08:27:51.834Z,15.63
2019-03-23T08:30:25.461Z,15.42
2019-03-23T08:32:59.518Z,15.28
2019-03-23T08:35:38.163Z,15.11
2019-03-23T08:38:11.873Z,17.37
2019-03-23T08:40:45.506Z,20.41
2019-03-23T08:43:19.147Z,19.76
2019-03-23T08:45:52.809Z,18.72
2019-03-23T08:48:26.588Z,18.04
2019-03-23T08:51:00.195Z,17.69
2019-03-23T08:53:33.907Z,17.43
2019-03-23T08:56:07.492Z,17.35
2019-03-23T08:58:37.712Z,17.29
2019-03-23T09:01:11.377Z,17.31
2019-03-23T09:03:52.336Z,17.34
2019-03-23T09:06:20.296Z,17.45
2019-03-23T09:08:53.874Z,17.61
2019-03-23T09:11:27.450Z,17.79
2019-03-23T09:14:01.014Z,17.96
2019-03-23T09:16:34.706Z,18.13
2019-03-23T09:19:08.543Z,18.35
2019-03-23T09:21:42.287Z,18.55
2019-03-23T09:24:15.909Z,18.76
2019-03-23T09:26:50.522Z,18.94
2019-03-23T09:29:24.207Z,19.15
2019-03-23T09:31:57.810Z,19.34
2019-03-23T09:34:31.386Z,19.49
2019-03-23T09:37:05.102Z,19.66
2019-03-23T09:39:38.760Z,19.80
2019-03-23T09:42:12.338Z,19.92
2019-03-23T09:44:45.949Z,20.06
2019-03-23T09:47:19.563Z,20.17
2019-03-23T09:49:53.337Z,20.30
2019-03-23T09:52:26.921Z,20.38
2019-03-23T09:55:00.567Z,20.50
2019-03-23T09:57:34.152Z,20.62
2019-03-23T10:00:08.386Z,20.75
2019-03-23T10:02:42.183Z,20.82
2019-03-23T10:05:15.762Z,20.93
2019-03-23T10:07:49.425Z,21.05
2019-03-23T10:10:22.984Z,21.19
2019-03-23T10:12:56.626Z,21.30
2019-03-23T10:15:30.221Z,21.40
2019-03-23T10:18:03.817Z,21.54
2019-03-23T10:20:37.373Z,21.64
2019-03-23T10:23:11.081Z,21.78
2019-03-23T10:25:44.759Z,21.86
2019-03-23T10:28:18.370Z,21.98
2019-03-23T10:30:51.982Z,22.08
2019-03-23T10:33:25.632Z,22.16
2019-03-23T10:35:59.314Z,22.26
2019-03-23T10:38:32.937Z,22.37
2019-03-23T10:41:06.533Z,22.43
2019-03-23T10:43:40.088Z,22.54
2019-03-23T10:46:13.735Z,22.68
2019-03-23T10:48:47.315Z,22.80
2019-03-23T10:51:21.019Z,22.92
2019-03-23T10:53:54.720Z,23.06
2019-03-23T10:56:28.372Z,23.18
2019-03-23T10:59:01.911Z,23.26
2019-03-23T11:01:35.516Z,23.35
2019-03-23T11:04:09.146Z,23.39
2019-03-23T11:06:42.866Z,23.45
2019-03-23T11:09:16.631Z,23.49
2019-03-23T11:11:50.309Z,23.52
2019-03-23T11:14:23.816Z,23.54
2019-03-23T11:16:57.381Z,23.54
2019-03-23T11:19:30.970Z,23.56
2019-03-23T11:22:04.608Z,23.60
2019-03-23T11:24:38.320Z,23.58
2019-03-23T11:27:11.989Z,23.57
2019-03-23T11:29:46.760Z,23.57
2019-03-23T11:32:20.273Z,23.58
2019-03-23T11:34:55.777Z,23.57
2019-03-23T11:37:29.355Z,23.56
2019-03-23T11:40:03.125Z,23.54
2019-03-23T11:42:36.776Z,23.58
2019-03-23T11:45:10.556Z,23.57
2019-03-23T11:47:44.612Z,23.60
2019-03-23T11:50:18.299Z,23.60
2019-03-23T11:52:51.904Z,23.63
2019-03-23T11:55:25.608Z,23.68
2019-03-23T11:57:59.278Z,23.77
2019-03-23T12:00:32.870Z,23.83
2019-03-23T12:03:06.522Z,23.90
2019-03-23T12:05:40.202Z,23.98
2019-03-23T12:08:13.730Z,24.04
2019-03-23T12:10:47.240Z,24.07
2019-03-23T12:13:20.901Z,24.05
2019-03-23T12:15:54.399Z,24.04
2019-03-23T12:18:28.070Z,24.01
2019-03-23T12:21:01.737Z,24.00
2019-03-23T12:23:37.277Z,24.04
2019-03-23T12:26:10.848Z,24.02
2019-03-23T12:28:44.371Z,24.07
2019-03-23T12:31:18.103Z,24.07
2019-03-23T12:37:18.934Z,24.01
2019-03-23T12:39:52.713Z,23.98
2019-03-23T12:42:26.442Z,23.97
2019-03-23T12:45:00.301Z,23.95
2019-03-23T12:47:35.462Z,23.95
2019-03-23T12:50:10.261Z,23.93
2019-03-23T12:52:43.967Z,23.88
2019-03-23T12:55:17.567Z,23.81
2019-03-23T12:57:51.163Z,23.76
2019-03-23T13:00:24.893Z,23.73
2019-03-23T13:02:58.653Z,23.68
2019-03-23T13:05:32.381Z,23.64
2019-03-23T13:08:06.195Z,23.57
2019-03-23T13:10:40.036Z,23.53
2019-03-23T13:13:15.008Z,23.46
2019-03-23T13:15:48.946Z,23.39
2019-03-23T13:18:27.173Z,23.28
2019-03-23T13:20:58.018Z,23.18
2019-03-23T13:23:31.556Z,23.09
2019-03-23T13:26:05.209Z,22.98
2019-03-23T13:28:38.974Z,22.91
2019-03-23T13:31:12.623Z,22.78
2019-03-23T13:33:46.197Z,22.70
2019-03-23T13:36:19.879Z,22.64
2019-03-23T13:38:53.563Z,22.53
2019-03-23T13:41:27.216Z,22.47
2019-03-23T13:44:01.178Z,22.43
2019-03-23T13:46:34.871Z,22.39
2019-03-23T13:49:08.511Z,22.33
2019-03-23T13:51:43.669Z,22.30
2019-03-23T13:54:17.381Z,22.26
2019-03-23T13:56:51.070Z,22.17
2019-03-23T13:59:25.052Z,22.08
2019-03-23T14:01:58.831Z,22.01
2019-03-23T14:04:34.136Z,21.92
2019-03-23T14:07:07.848Z,21.86
2019-03-23T14:09:42.882Z,21.78
2019-03-23T14:12:16.994Z,21.71
2019-03-23T14:14:50.959Z,21.61
2019-03-23T14:17:24.690Z,21.53
2019-03-23T14:19:58.481Z,21.44
2019-03-23T14:22:32.594Z,21.37
2019-03-23T14:25:06.589Z,21.30
2019-03-23T14:27:40.256Z,21.23
2019-03-23T14:30:15.420Z,21.11
2019-03-23T14:32:49.101Z,21.07
2019-03-23T14:35:22.831Z,21.00
2019-03-23T14:37:56.582Z,20.92
2019-03-23T14:40:31.277Z,20.86
2019-03-23T14:43:04.931Z,20.81
2019-03-23T14:45:38.627Z,20.75
2019-03-23T14:48:12.372Z,20.70
2019-03-23T14:50:46.037Z,20.63
2019-03-23T14:53:19.694Z,20.62
2019-03-23T14:55:53.233Z,20.56
2019-03-23T14:58:26.833Z,20.52
2019-03-23T15:01:00.401Z,20.50
2019-03-23T15:03:35.076Z,20.47
2019-03-23T15:06:10.306Z,20.44
2019-03-23T15:08:48.087Z,20.41
2019-03-23T15:11:21.781Z,20.41
2019-03-23T15:13:55.479Z,20.37
2019-03-23T15:16:29.298Z,20.34
2019-03-23T15:19:02.924Z,20.31
2019-03-23T15:21:36.827Z,20.25
2019-03-23T15:24:11.065Z,20.23
2019-03-23T15:26:47.485Z,20.20
2019-03-23T15:29:21.027Z,20.14
2019-03-23T15:31:54.589Z,20.09
2019-03-23T15:34:28.146Z,20.07
2019-03-23T15:37:02.131Z,20.02
2019-03-23T15:39:38.335Z,19.97
2019-03-23T15:42:12.601Z,19.95
2019-03-23T15:44:50.295Z,19.93
2019-03-23T15:47:23.958Z,19.87
2019-03-23T15:50:05.829Z,19.85
2019-03-23T15:52:47.741Z,19.80
2019-03-23T16:31:20.368Z,19.15
2019-03-23T16:34:05.148Z,19.01
2019-03-23T16:36:42.301Z,18.90
2019-03-23T16:39:27.154Z,18.79
2019-03-23T16:42:11.185Z,18.69
2019-03-23T16:44:45.371Z,18.55
2019-03-23T16:47:26.880Z,18.44
2019-03-23T16:50:03.955Z,18.31
2019-03-23T16:52:41.744Z,18.17
2019-03-23T16:55:19.826Z,17.99
2019-03-23T16:58:03.724Z,17.85
2019-03-23T17:00:53.707Z,17.70
2019-03-23T17:03:52.461Z,17.53
2019-03-23T17:06:27.325Z,17.35
2019-03-23T17:09:08.176Z,17.21
2019-03-23T17:11:46.051Z,17.07
2019-03-23T17:14:20.467Z,16.93
2019-03-23T17:16:54.894Z,16.79
2019-03-23T17:19:29.769Z,16.62
2019-03-23T17:22:07.313Z,16.52
2019-03-23T17:24:40.957Z,16.35
2019-03-23T17:27:17.759Z,16.21
2019-03-23T17:29:51.601Z,16.04
2019-03-23T17:32:25.290Z,15.90
2019-03-23T17:34:59.126Z,15.74
2019-03-23T17:37:33.053Z,15.59
2019-03-23T17:40:07.347Z,15.42
2019-03-23T17:42:41.328Z,15.27
2019-03-23T17:45:15.524Z,15.12
2019-03-23T17:47:51.140Z,14.94
2019-03-23T17:50:24.952Z,14.81
2019-03-23T17:52:58.677Z,14.62
2019-03-23T17:55:32.631Z,14.46
2019-03-23T17:58:06.570Z,14.31
2019-03-23T18:00:40.793Z,16.89
2019-03-23T18:03:15.643Z,17.83
2019-03-23T18:05:49.989Z,16.80
2019-03-23T18:08:24.753Z,15.94
2019-03-23T18:11:02.160Z,15.45
2019-03-23T18:13:38.909Z,15.02
2019-03-23T18:16:13.052Z,14.69
2019-03-23T18:18:47.069Z,14.43
2019-03-23T18:21:22.602Z,14.16
2019-03-23T18:23:56.847Z,13.94
2019-03-23T18:26:31.200Z,13.73
2019-03-23T18:29:05.241Z,13.51
2019-03-23T18:31:38.963Z,15.74
2019-03-23T18:34:12.826Z,17.07
2019-03-23T18:36:47.042Z,16.01
2019-03-23T18:39:21.089Z,15.15
2019-03-23T18:41:55.277Z,14.62
2019-03-23T18:44:29.094Z,14.22
2019-03-23T18:47:03.292Z,13.90
2019-03-23T18:49:40.087Z,13.66
2019-03-23T18:52:14.980Z,13.40
2019-03-23T18:54:50.935Z,13.21
2019-03-23T18:57:24.731Z,13.01
2019-03-23T18:59:58.958Z,12.84
2019-03-23T19:02:33.264Z,12.70
2019-03-23T19:05:08.322Z,15.67
2019-03-23T19:07:42.463Z,16.84
2019-03-23T19:10:20.492Z,15.80
2019-03-23T19:12:54.548Z,14.90
2019-03-23T19:15:29.328Z,14.33
2019-03-23T19:18:06.420Z,13.90
2019-03-23T19:20:40.409Z,13.58
2019-03-23T19:23:15.386Z,13.33
2019-03-23T19:25:49.313Z,13.07
2019-03-23T19:28:23.663Z,12.88
2019-03-23T19:30:58.009Z,12.70
2019-03-23T19:33:32.921Z,12.51
2019-03-23T19:36:06.989Z,15.21
2019-03-23T19:38:40.960Z,18.23
2019-03-23T19:41:14.829Z,17.22
2019-03-23T19:43:51.813Z,15.94
2019-03-23T19:46:24.908Z,15.11
2019-03-23T19:48:58.807Z,14.53
2019-03-23T19:51:32.543Z,14.09
2019-03-23T19:54:07.368Z,13.76
2019-03-23T19:56:42.116Z,13.49
2019-03-23T19:59:15.710Z,13.21
2019-03-23T20:01:49.538Z,12.97
2019-03-23T20:04:23.713Z,12.75
2019-03-23T20:06:57.624Z,12.56
2019-03-23T20:09:34.924Z,12.35
2019-03-23T20:12:08.713Z,15.07
2019-03-23T20:14:42.582Z,18.68
2019-03-23T20:17:16.547Z,17.94
2019-03-23T20:19:51.601Z,16.49
2019-03-23T20:22:25.711Z,15.55
2019-03-23T20:24:59.729Z,14.90
2019-03-23T20:27:35.017Z,14.39
2019-03-23T20:30:12.965Z,14.04
2019-03-23T20:32:47.084Z,13.66
2019-03-23T20:35:20.900Z,13.40
2019-03-23T20:37:56.240Z,13.15
2019-03-23T20:40:30.111Z,12.87
2019-03-23T20:43:03.835Z,12.64
2019-03-23T20:45:37.709Z,12.39
2019-03-23T20:48:11.945Z,14.73
2019-03-23T20:50:46.127Z,17.07
2019-03-23T20:53:21.957Z,15.88
2019-03-23T20:55:55.638Z,14.79
2019-03-23T20:58:29.431Z,14.04
2019-03-23T21:01:03.249Z,13.50
2019-03-23T21:03:37.202Z,13.09
2019-03-23T21:06:12.582Z,12.74
2019-03-23T21:08:46.911Z,12.44
2019-03-23T21:11:20.698Z,13.12
2019-03-23T21:13:54.716Z,16.73
2019-03-23T21:16:28.703Z,16.22
2019-03-23T21:19:02.664Z,15.00
2019-03-23T21:21:36.442Z,14.12
2019-03-23T21:24:10.126Z,13.50
2019-03-23T21:26:44.380Z,13.07
2019-03-23T21:29:18.131Z,12.67
2019-03-23T21:31:51.766Z,12.37
2019-03-23T21:34:25.485Z,12.11
2019-03-23T21:36:59.139Z,11.82
2019-03-23T21:39:35.156Z,11.57
2019-03-23T21:42:08.923Z,11.36
2019-03-23T21:44:46.168Z,11.13
2019-03-23T21:47:19.948Z,13.88
2019-03-23T21:49:53.706Z,15.25
2019-03-23T21:52:27.594Z,14.09
2019-03-23T21:55:01.404Z,13.18
2019-03-23T21:57:35.263Z,12.56
2019-03-23T22:00:16.275Z,12.13
2019-03-23T22:02:50.310Z,11.78
2019-03-23T22:05:24.121Z,11.50
2019-03-23T22:07:57.948Z,11.25
2019-03-23T22:10:31.776Z,11.03
2019-03-23T22:13:05.719Z,11.03
2019-03-23T22:15:39.511Z,14.49
2019-03-23T22:18:13.279Z,15.29
2019-03-23T22:20:47.406Z,14.08
2019-03-23T22:23:21.067Z,13.11
2019-03-23T22:25:54.731Z,12.46
2019-03-23T22:28:28.517Z,12.01
2019-03-23T22:31:02.970Z,11.67
2019-03-23T22:33:36.760Z,11.35
2019-03-23T22:36:10.420Z,11.10
2019-03-23T22:38:48.651Z,10.84
2019-03-23T22:41:23.085Z,10.63
2019-03-23T22:43:58.070Z,13.14
2019-03-23T22:46:32.010Z,16.13
2019-03-23T22:49:06.230Z,15.09
2019-03-23T22:51:39.869Z,13.80
2019-03-23T22:54:13.733Z,12.91
2019-03-23T22:56:47.579Z,12.30
2019-03-23T22:59:21.316Z,11.89
2019-03-23T23:01:55.257Z,11.51
2019-03-23T23:04:28.950Z,11.20
2019-03-23T23:07:02.694Z,10.96
2019-03-23T23:09:37.591Z,10.72
2019-03-23T23:12:11.340Z,10.50
2019-03-23T23:14:48.998Z,10.29
2019-03-23T23:17:22.727Z,12.75
2019-03-23T23:19:56.488Z,15.87
2019-03-23T23:22:30.258Z,15.00
2019-03-23T23:25:04.525Z,13.68
2019-03-23T23:27:39.771Z,12.81
2019-03-23T23:30:14.232Z,12.26
2019-03-23T23:32:47.989Z,11.81
2019-03-23T23:35:21.753Z,11.49
2019-03-23T23:37:57.082Z,11.17
2019-03-23T23:40:30.778Z,10.91
2019-03-23T23:43:04.670Z,10.61
2019-03-23T23:45:38.541Z,10.40
2019-03-23T23:48:14.922Z,12.56
2019-03-23T23:50:51.279Z,16.27
2019-03-23T23:53:25.271Z,16.20
2019-03-23T23:55:58.925Z,14.69
2019-03-23T23:58:32.606Z,13.54
